Time;durP1;ratioP1;P1;durP2;ratioP2;P2;SDS_P1;SDS_P2;PMS_P1;PMS_P2;Temp;Humidity;BMP_temperature;BMP_pressure;BME280_temperature;BME280_humidity;BME280_pressure;Samples;Min_cycle;Max_cycle;Signal;HPM_P1;HPM_P2
2022/06/14 00:01:40;;;;;;;13.02;2.03;;;11.00;99.90;;;;;;5064161;28;20053;-64
2022/06/14 00:04:05;;;;;;;11.35;2.30;;;11.00;99.90;;;;;;5067869;28;20083;-65
2022/06/14 00:06:33;;;;;;;13.57;2.72;;;10.90;99.90;;;;;;5085858;28;20839;-66
2022/06/14 00:08:59;;;;;;;11.00;2.40;;;10.90;99.90;;;;;;5067771;28;20093;-62
2022/06/14 00:11:31;;;;;;;10.73;2.67;;;10.90;99.90;;;;;;5066949;28;20044;-70
2022/06/14 00:13:59;;;;;;;10.73;2.20;;;10.90;99.90;;;;;;5050666;28;20051;-73
2022/06/14 00:16:26;;;;;;;14.75;2.17;;;10.90;99.90;;;;;;5061733;28;20506;-70
2022/06/14 00:18:52;;;;;;;14.38;2.33;;;10.90;99.90;;;;;;5067417;28;20036;-66
2022/06/14 00:21:19;;;;;;;11.32;2.28;;;10.90;99.90;;;;;;5067222;28;20113;-65
2022/06/14 00:23:45;;;;;;;15.52;2.30;;;10.90;99.90;;;;;;5065708;28;20043;-66
2022/06/14 00:26:12;;;;;;;14.55;2.58;;;10.90;99.90;;;;;;5067286;28;20077;-72
2022/06/14 00:28:39;;;;;;;9.88;2.10;;;10.90;99.90;;;;;;5067434;28;20044;-67
2022/06/14 00:31:17;;;;;;;13.82;1.88;;;10.90;99.90;;;;;;5050775;28;20048;-72
2022/06/14 00:33:44;;;;;;;7.88;1.83;;;10.80;99.90;;;;;;5061015;28;20044;-64
2022/06/14 00:36:20;;;;;;;10.35;2.13;;;10.80;99.90;;;;;;5067028;28;20084;-69
2022/06/14 00:38:46;;;;;;;15.98;2.22;;;10.80;99.90;;;;;;5067366;28;20071;-73
2022/06/14 00:41:31;;;;;;;11.70;2.30;;;10.70;99.90;;;;;;5042575;28;20082;-73
2022/06/14 00:43:57;;;;;;;10.65;2.00;;;10.70;99.90;;;;;;5064190;28;20079;-69
2022/06/14 00:46:28;;;;;;;14.60;2.85;;;10.60;99.90;;;;;;5066610;28;20078;-66
2022/06/14 00:49:02;;;;;;;14.35;2.75;;;10.70;99.90;;;;;;5067049;28;20585;-64
2022/06/14 00:51:32;;;;;;;9.35;2.40;;;10.60;99.90;;;;;;5064824;28;20089;-62
2022/06/14 00:54:23;;;;;;;7.07;2.25;;;10.60;99.90;;;;;;5067489;28;20479;-63
2022/06/14 00:56:58;;;;;;;9.82;2.08;;;10.60;99.90;;;;;;5067663;28;20051;-66
2022/06/14 00:59:32;;;;;;;7.82;2.10;;;10.60;99.90;;;;;;5066303;28;20083;-63
2022/06/14 01:02:29;;;;;;;7.57;1.58;;;10.60;99.90;;;;;;5060802;28;20438;-68
2022/06/14 01:04:55;;;;;;;12.38;2.22;;;10.50;99.90;;;;;;5050910;28;20581;-61
2022/06/14 01:07:29;;;;;;;6.75;1.70;;;10.60;99.90;;;;;;5065015;28;20040;-67
2022/06/14 01:10:01;;;;;;;15.00;2.47;;;10.50;99.90;;;;;;5066954;28;20044;-63
2022/06/14 01:12:33;;;;;;;10.20;1.98;;;10.60;99.90;;;;;;5064810;28;20051;-64
2022/06/14 01:15:22;;;;;;;7.30;1.92;;;10.60;99.90;;;;;;5066969;28;20406;-66
2022/06/14 01:17:59;;;;;;;15.95;2.63;;;10.60;99.90;;;;;;5065517;28;20044;-66
2022/06/14 01:20:25;;;;;;;13.73;2.75;;;10.50;99.90;;;;;;5054363;28;20510;-63
2022/06/14 01:22:53;;;;;;;15.27;2.28;;;10.50;99.90;;;;;;5065213;28;20127;-61
2022/06/14 01:25:20;;;;;;;9.70;2.25;;;10.50;99.90;;;;;;5052825;28;20086;-68
2022/06/14 01:27:48;;;;;;;7.78;1.80;;;10.50;99.90;;;;;;5066953;28;20050;-66
2022/06/14 01:30:18;;;;;;;11.77;2.58;;;10.50;99.90;;;;;;5049928;28;20036;-61
2022/06/14 01:32:47;;;;;;;;;;;10.50;99.90;;;;;;5062798;28;20036;-66
2022/06/14 01:35:24;;;;;;;13.38;2.65;;;10.50;99.90;;;;;;5065864;28;19927;-66
2022/06/14 01:37:52;;;;;;;10.02;2.35;;;10.50;99.90;;;;;;5049897;28;20083;-62
2022/06/14 01:40:25;;;;;;;12.30;2.28;;;10.50;99.90;;;;;;5057052;28;20521;-73
2022/06/14 01:43:13;;;;;;;12.48;2.53;;;10.50;99.90;;;;;;5056297;28;20044;-71
2022/06/14 01:46:05;;;;;;;12.15;2.53;;;10.40;99.90;;;;;;5079071;28;20124;-68
2022/06/14 01:48:49;;;;;;;11.57;2.65;;;10.40;99.90;;;;;;5082174;28;20059;-68
2022/06/14 01:51:51;;;;;;;13.68;2.28;;;10.30;99.90;;;;;;5065816;28;20055;-66
2022/06/14 01:54:27;;;;;;;8.60;1.98;;;10.30;99.90;;;;;;5052840;28;20383;-70
2022/06/14 01:57:23;;;;;;;10.23;1.80;;;10.30;99.90;;;;;;5049434;28;20051;-68
2022/06/14 02:00:09;;;;;;;5.93;1.70;;;10.30;99.90;;;;;;5061227;28;20063;-69
2022/06/14 02:02:49;;;;;;;10.77;1.83;;;10.20;99.90;;;;;;5063263;28;20564;-69
2022/06/14 02:05:34;;;;;;;12.00;2.58;;;10.10;99.90;;;;;;5053322;28;20413;-67
2022/06/14 02:08:12;;;;;;;8.73;2.30;;;10.10;99.90;;;;;;5057283;28;20154;-72
2022/06/14 02:10:52;;;;;;;10.13;2.13;;;10.10;99.90;;;;;;5064807;28;20066;-66
2022/06/14 02:13:39;;;;;;;9.43;2.10;;;10.20;99.90;;;;;;5068246;28;20040;-69
2022/06/14 02:16:12;;;;;;;14.60;2.30;;;10.20;99.90;;;;;;5085290;28;20055;-71
2022/06/14 02:18:46;;;;;;;10.07;2.38;;;10.30;99.90;;;;;;5057969;28;20093;-66
2022/06/14 02:21:23;;;;;;;8.02;2.10;;;10.40;99.90;;;;;;5052884;28;20044;-66
2022/06/14 02:23:57;;;;;;;12.63;2.47;;;10.40;99.90;;;;;;5069535;28;20052;-69
2022/06/14 02:26:28;;;;;;;12.63;2.13;;;10.50;99.90;;;;;;5069153;28;20044;-73
2022/06/14 02:29:09;;;;;;;15.05;2.55;;;10.50;99.90;;;;;;5069415;28;20109;-71
2022/06/14 02:31:40;;;;;;;7.70;2.60;;;10.60;99.90;;;;;;5051579;28;20036;-61
2022/06/14 02:34:14;;;;;;;15.10;3.00;;;10.60;99.90;;;;;;5063096;28;20045;-69
2022/06/14 02:36:49;;;;;;;6.80;2.15;;;10.70;99.90;;;;;;5064058;28;20032;-65
2022/06/14 02:39:21;;;;;;;12.85;2.08;;;10.70;99.90;;;;;;5069221;28;20186;-70
2022/06/14 02:41:59;;;;;;;8.20;2.05;;;10.80;99.90;;;;;;5068566;28;20052;-61
2022/06/14 02:44:37;;;;;;;9.50;2.70;;;10.80;99.90;;;;;;5068627;28;20103;-71
2022/06/14 02:47:22;;;;;;;12.07;2.47;;;10.80;99.90;;;;;;5087761;28;20052;-63
2022/06/14 02:50:00;;;;;;;11.18;2.22;;;10.90;99.90;;;;;;5067332;28;20094;-70
2022/06/14 02:52:38;;;;;;;13.48;2.08;;;10.90;99.90;;;;;;5068695;28;20124;-62
2022/06/14 02:55:23;;;;;;;6.80;2.10;;;10.90;99.90;;;;;;5069440;28;20122;-69
2022/06/14 02:58:10;;;;;;;7.68;2.00;;;10.90;99.90;;;;;;5065350;28;20551;-66
2022/06/14 03:00:42;;;;;;;8.52;2.47;;;10.90;99.90;;;;;;5064677;28;20040;-68
2022/06/14 03:03:11;;;;;;;16.33;2.35;;;10.90;99.90;;;;;;5052025;28;20109;-61
2022/06/14 03:05:44;;;;;;;16.92;2.65;;;10.90;99.90;;;;;;5068641;28;20058;-64
2022/06/14 03:08:34;;;;;;;9.38;2.10;;;10.90;99.90;;;;;;5069354;28;20052;-72
2022/06/14 03:11:23;;;;;;;9.45;2.40;;;10.90;99.90;;;;;;5066853;28;20048;-62
2022/06/14 03:14:16;;;;;;;10.10;1.83;;;10.90;99.90;;;;;;5060317;28;20503;-63
2022/06/14 03:16:54;;;;;;;8.50;2.17;;;10.80;99.90;;;;;;5068310;28;20048;-65
2022/06/14 03:19:48;;;;;;;11.93;2.20;;;10.80;99.90;;;;;;5064408;28;20049;-65
2022/06/14 03:22:46;;;;;;;10.18;2.13;;;10.80;99.90;;;;;;5057354;28;20055;-68
2022/06/14 03:25:23;;;;;;;12.77;2.53;;;10.80;99.90;;;;;;5068520;28;20048;-62
2022/06/14 03:28:01;;;;;;;8.60;2.42;;;10.80;99.90;;;;;;5067946;28;20063;-65
2022/06/14 03:30:40;;;;;;;12.07;2.17;;;10.80;99.90;;;;;;5058256;28;20040;-67
2022/06/14 03:33:13;;;;;;;10.67;1.80;;;10.80;99.90;;;;;;5067379;28;20051;-68
2022/06/14 03:35:47;;;;;;;7.10;2.03;;;10.80;99.90;;;;;;5068281;28;20063;-72
2022/06/14 03:38:29;;;;;;;9.02;2.03;;;10.80;99.90;;;;;;5067765;28;20040;-69
2022/06/14 03:40:55;;;;;;;14.63;2.15;;;10.90;99.90;;;;;;5049538;28;20183;-70
2022/06/14 03:43:21;;;;;;;10.52;2.40;;;10.90;99.90;;;;;;5067009;28;20160;-69
2022/06/14 03:45:53;;;;;;;15.00;2.85;;;10.90;99.90;;;;;;5055132;28;20382;-62
2022/06/14 03:48:19;;;;;;;10.32;2.28;;;10.90;99.90;;;;;;5067954;28;20375;-64
2022/06/14 03:51:13;;;;;;;10.52;2.55;;;10.90;99.90;;;;;;5048879;28;20114;-62
2022/06/14 03:53:51;;;;;;;6.38;1.80;;;10.90;99.90;;;;;;5067159;28;20127;-68
2022/06/14 03:56:43;;;;;;;8.90;1.90;;;10.90;99.90;;;;;;5067740;28;20093;-67
2022/06/14 03:59:27;;;;;;;14.70;2.00;;;10.90;99.90;;;;;;5067574;28;20047;-68
2022/06/14 04:02:05;;;;;;;13.90;2.67;;;10.90;99.90;;;;;;5064935;28;20116;-71
2022/06/14 04:04:46;;;;;;;10.38;2.15;;;10.90;99.90;;;;;;5067414;28;20059;-72
2022/06/14 04:07:39;;;;;;;11.15;2.80;;;11.00;99.90;;;;;;5067584;28;20051;-62
2022/06/14 04:10:28;;;;;;;10.15;1.92;;;11.00;99.90;;;;;;5067724;28;20047;-63
2022/06/14 04:13:14;;;;;;;8.75;2.10;;;11.00;99.90;;;;;;5056379;28;20056;-72
2022/06/14 04:15:42;;;;;;;11.07;2.92;;;11.00;99.90;;;;;;5066802;28;20055;-69
2022/06/14 04:21:02;;;;;;;15.38;1.88;;;11.00;99.90;;;;;;5066922;28;20052;-69
2022/06/14 04:23:48;;;;;;;7.43;1.95;;;11.00;99.90;;;;;;5064617;28;20047;-69
2022/06/14 04:26:32;;;;;;;14.35;2.20;;;11.00;99.90;;;;;;5067444;28;20063;-64
2022/06/14 04:29:03;;;;;;;18.08;2.85;;;11.10;99.90;;;;;;5067348;28;20056;-64
2022/06/14 04:31:40;;;;;;;11.80;2.00;;;11.10;99.90;;;;;;5050352;28;20067;-67
2022/06/14 04:34:26;;;;;;;14.70;2.38;;;11.10;99.90;;;;;;5060694;28;20405;-72
2022/06/14 04:36:58;;;;;;;16.75;4.00;;;11.10;99.90;;;;;;5049724;28;20089;-69
2022/06/14 04:39:44;;;;;;;8.95;2.22;;;11.10;99.90;;;;;;5066788;28;20052;-69
2022/06/14 04:42:18;;;;;;;10.43;2.38;;;11.10;99.90;;;;;;5066986;28;20056;-73
2022/06/14 04:44:49;;;;;;;6.95;1.85;;;11.10;99.90;;;;;;5064553;28;20044;-67
2022/06/14 04:47:27;;;;;;;16.92;1.92;;;11.10;99.90;;;;;;5067190;28;20417;-62
2022/06/14 04:50:16;;;;;;;8.70;2.15;;;11.10;99.90;;;;;;5066219;28;20051;-67
2022/06/14 04:52:53;;;;;;;14.18;1.92;;;11.10;99.90;;;;;;5066038;28;20898;-63
2022/06/14 04:55:29;;;;;;;17.45;3.35;;;11.20;99.90;;;;;;5065730;28;20052;-67
2022/06/14 04:58:04;;;;;;;11.25;2.95;;;11.30;99.90;;;;;;5066418;28;20056;-69
2022/06/14 05:00:35;;;;;;;12.02;2.10;;;11.40;99.90;;;;;;5067164;28;20048;-68
2022/06/14 05:03:06;;;;;;;12.65;2.50;;;11.50;99.90;;;;;;5084380;28;20055;-60
2022/06/14 05:05:40;;;;;;;12.90;2.17;;;11.80;99.90;;;;;;5053354;28;20082;-63
2022/06/14 05:08:15;;;;;;;8.65;2.53;;;12.10;99.90;;;;;;5066519;28;20455;-68
2022/06/14 05:10:52;;;;;;;8.60;2.47;;;12.30;99.90;;;;;;5065801;28;20048;-66
2022/06/14 05:13:41;;;;;;;15.93;2.22;;;12.50;99.90;;;;;;5050436;28;20082;-68
2022/06/14 05:16:13;;;;;;;13.07;3.40;;;12.50;99.90;;;;;;5051392;28;20471;-66
2022/06/14 05:18:53;;;;;;;13.90;2.33;;;12.60;99.90;;;;;;5066402;28;20115;-66
2022/06/14 05:21:30;;;;;;;16.35;2.97;;;12.70;99.90;;;;;;5066726;28;20091;-67
2022/06/14 05:23:56;;;;;;;12.77;2.47;;;12.80;99.90;;;;;;5084335;28;20056;-61
2022/06/14 05:26:36;;;;;;;16.17;2.42;;;12.80;99.90;;;;;;5064494;28;20040;-68
2022/06/14 05:29:22;;;;;;;14.55;2.80;;;12.90;99.90;;;;;;5049418;28;20044;-67
2022/06/14 05:31:59;;;;;;;13.68;2.60;;;12.90;99.90;;;;;;5065335;28;20048;-61
2022/06/14 05:35:02;;;;;;;10.27;2.30;;;12.90;99.90;;;;;;5069903;28;20043;-67
2022/06/14 05:38:12;;;;;;;14.30;2.30;;;13.00;99.90;;;;;;5068074;28;20375;-67
2022/06/14 05:41:02;;;;;;;;;;;13.10;99.90;;;;;;5050885;28;20502;-70
2022/06/14 05:43:44;;;;;;;9.13;2.17;;;13.30;99.90;;;;;;5059836;28;20893;-65
2022/06/14 05:46:27;;;;;;;6.95;2.10;;;13.50;99.90;;;;;;5035673;28;20060;-67
2022/06/14 05:49:08;;;;;;;15.88;2.70;;;13.70;99.90;;;;;;5050869;28;20604;-69
2022/06/14 05:51:48;;;;;;;10.93;2.38;;;13.80;99.90;;;;;;5088393;28;20056;-65
2022/06/14 05:54:43;;;;;;;9.07;1.80;;;14.00;99.90;;;;;;5067300;28;20139;-66
2022/06/14 05:57:35;;;;;;;11.15;3.58;;;14.20;99.90;;;;;;5065554;28;20036;-66
2022/06/14 06:00:27;;;;;;;10.07;2.10;;;14.30;99.90;;;;;;5058513;28;20121;-68
2022/06/14 06:03:11;;;;;;;13.73;2.33;;;14.40;99.90;;;;;;5068838;28;20081;-65
2022/06/14 06:05:48;;;;;;;7.28;1.70;;;14.50;99.90;;;;;;5069453;28;20876;-69
2022/06/14 06:08:40;;;;;;;8.13;2.00;;;14.60;99.90;;;;;;5043186;28;20044;-59
2022/06/14 06:11:12;;;;;;;7.78;2.20;;;14.70;99.90;;;;;;5060629;28;20049;-64
2022/06/14 06:13:43;;;;;;;10.95;2.30;;;14.80;99.90;;;;;;5070170;28;20093;-70
2022/06/14 06:16:19;;;;;;;7.63;1.52;;;14.80;99.90;;;;;;5087953;28;20044;-67
2022/06/14 06:18:58;;;;;;;10.85;2.25;;;14.70;99.90;;;;;;5068056;28;20108;-68
2022/06/14 06:21:34;;;;;;;8.30;2.00;;;14.70;99.90;;;;;;5068987;28;20040;-60
2022/06/14 06:24:00;;;;;;;10.25;2.78;;;14.70;99.90;;;;;;5065952;28;20048;-62
2022/06/14 06:26:36;;;;;;;9.57;2.35;;;14.70;99.90;;;;;;5083915;28;20193;-63
2022/06/14 06:29:23;;;;;;;8.30;2.08;;;14.70;99.90;;;;;;5067992;28;20036;-66
2022/06/14 06:31:48;;;;;;;9.75;2.00;;;14.70;99.90;;;;;;5085118;28;20081;-60
2022/06/14 06:34:17;;;;;;;13.57;2.55;;;14.80;99.90;;;;;;5069596;28;20044;-60
2022/06/14 06:37:04;;;;;;;11.55;2.20;;;14.80;99.90;;;;;;5068962;28;20062;-64
2022/06/14 06:39:41;;;;;;;10.38;2.92;;;14.80;99.90;;;;;;5052366;28;20051;-62
2022/06/14 06:42:13;;;;;;;10.60;2.38;;;14.90;99.90;;;;;;5067407;28;20040;-61
2022/06/14 06:44:50;;;;;;;9.75;2.08;;;15.00;99.90;;;;;;5043518;28;20127;-61
2022/06/14 06:47:26;;;;;;;6.95;1.90;;;15.00;99.90;;;;;;5067343;28;20081;-65
2022/06/14 06:50:29;;;;;;;11.55;2.28;;;15.00;99.90;;;;;;5049753;28;20078;-62
2022/06/14 06:53:11;;;;;;;11.48;2.15;;;15.00;99.90;;;;;;5063141;28;20051;-66
2022/06/14 06:55:50;;;;;;;4.88;2.10;;;15.10;99.90;;;;;;5066211;28;20555;-69
2022/06/14 06:58:22;;;;;;;8.13;1.80;;;15.10;99.90;;;;;;5068690;28;20048;-65
2022/06/14 07:00:50;;;;;;;14.30;2.22;;;15.30;99.90;;;;;;5063439;28;20040;-65
2022/06/14 07:03:39;;;;;;;10.32;2.30;;;15.40;99.90;;;;;;5057372;28;20085;-62
2022/06/14 07:06:13;;;;;;;4.80;1.40;;;15.40;99.90;;;;;;5045883;28;20051;-66
2022/06/14 07:08:58;;;;;;;8.15;1.80;;;15.30;99.90;;;;;;5068346;28;20044;-65
2022/06/14 07:11:40;;;;;;;10.45;2.20;;;15.20;99.90;;;;;;5064733;28;20102;-64
2022/06/14 07:14:14;;;;;;;8.15;1.73;;;15.10;99.90;;;;;;5068040;28;20042;-66
2022/06/14 07:16:51;;;;;;;12.25;1.90;;;15.20;99.90;;;;;;5067667;28;20089;-65
2022/06/14 07:19:29;;;;;;;6.57;1.50;;;15.30;99.90;;;;;;5065516;28;20040;-67
2022/06/14 07:22:09;;;;;;;8.02;1.80;;;15.30;99.90;;;;;;5048339;28;20042;-68
2022/06/14 07:24:55;;;;;;;;;;;15.30;99.90;;;;;;5066882;28;20039;-66
2022/06/14 07:27:26;;;;;;;10.18;1.85;;;15.20;99.90;;;;;;5066461;28;20373;-68
2022/06/14 07:30:05;;;;;;;6.78;2.22;;;15.20;99.90;;;;;;5064856;28;20043;-65
2022/06/14 07:32:38;;;;;;;7.90;1.30;;;15.60;99.90;;;;;;5081541;28;20545;-68
2022/06/14 07:35:04;;;;;;;3.42;1.40;;;16.10;99.90;;;;;;5082192;28;20094;-70
2022/06/14 07:37:35;;;;;;;8.00;1.67;;;16.20;99.90;;;;;;5049615;28;20063;-70
2022/06/14 07:40:14;;;;;;;6.10;1.88;;;16.10;99.70;;;;;;5065325;28;20063;-69
2022/06/14 07:42:58;;;;;;;6.05;1.58;;;16.10;99.30;;;;;;5061770;28;20052;-59
2022/06/14 07:45:35;;;;;;;6.43;1.52;;;16.10;99.90;;;;;;5068017;28;20059;-66
2022/06/14 07:48:31;;;;;;;4.47;1.50;;;16.00;99.90;;;;;;5068012;28;20048;-66
2022/06/14 07:51:25;;;;;;;7.53;1.83;;;16.10;99.90;;;;;;5054153;28;20075;-69
2022/06/14 07:53:58;;;;;;;4.97;1.42;;;15.90;99.90;;;;;;5062477;28;20068;-59
2022/06/14 07:56:30;;;;;;;6.68;1.50;;;15.70;99.90;;;;;;5061954;28;20063;-63
2022/06/14 07:59:01;;;;;;;7.35;1.60;;;15.90;99.90;;;;;;5065787;28;20050;-66
2022/06/14 08:01:44;;;;;;;7.97;1.65;;;16.00;99.90;;;;;;5067250;28;20083;-69
2022/06/14 08:04:14;;;;;;;5.95;1.75;;;15.70;99.80;;;;;;5064827;28;20135;-68
2022/06/14 08:06:53;;;;;;;5.43;1.60;;;15.50;99.90;;;;;;5067090;28;20078;-62
2022/06/14 08:09:40;;;;;;;4.55;1.27;;;15.70;99.90;;;;;;5067160;28;20395;-68
2022/06/14 08:12:40;;;;;;;4.70;1.20;;;16.20;99.50;;;;;;5067141;28;20114;-70
2022/06/14 08:15:10;;;;;;;4.78;1.40;;;16.50;99.00;;;;;;5060460;28;20064;-68
2022/06/14 08:17:51;;;;;;;7.05;1.60;;;16.40;98.60;;;;;;5066782;28;20040;-67
2022/06/14 08:20:21;;;;;;;8.77;1.83;;;16.30;99.90;;;;;;5054282;28;20887;-68
2022/06/14 08:22:53;;;;;;;5.90;1.55;;;16.50;99.80;;;;;;5085623;28;20102;-66
2022/06/14 08:25:26;;;;;;;3.80;1.00;;;17.00;99.20;;;;;;5079266;28;20028;-61
2022/06/14 08:28:03;;;;;;;6.47;1.27;;;17.50;98.00;;;;;;5049998;28;20044;-58
2022/06/14 08:30:40;;;;;;;4.43;1.05;;;17.80;92.20;;;;;;5037086;28;20056;-70
2022/06/14 08:33:24;;;;;;;3.58;1.20;;;17.90;86.00;;;;;;5066294;28;20052;-69
2022/06/14 08:35:55;;;;;;;4.20;1.30;;;17.70;77.40;;;;;;5062876;28;20115;-65
2022/06/14 08:38:57;;;;;;;7.22;1.67;;;17.40;91.20;;;;;;5085330;28;20048;-65
2022/06/14 08:41:49;;;;;;;7.90;1.75;;;17.30;94.90;;;;;;5084615;28;20063;-62
2022/06/14 08:44:32;;;;;;;4.25;1.23;;;17.70;93.60;;;;;;5055378;28;20097;-58
2022/06/14 08:47:16;;;;;;;5.97;1.25;;;17.60;86.40;;;;;;5082942;28;20052;-60
2022/06/14 08:49:58;;;;;;;3.97;1.23;;;17.30;85.00;;;;;;5067290;28;20051;-66
2022/06/14 08:52:41;;;;;;;5.88;1.30;;;17.10;92.50;;;;;;5083814;28;20422;-69
2022/06/14 08:55:38;;;;;;;9.07;1.50;;;17.30;93.00;;;;;;5065868;28;20109;-62
2022/06/14 08:58:34;;;;;;;6.60;2.03;;;17.50;91.20;;;;;;5058582;28;20044;-66
2022/06/14 09:01:07;;;;;;;4.55;1.50;;;17.80;92.40;;;;;;5065909;28;20040;-60
2022/06/14 09:03:49;;;;;;;7.28;1.17;;;18.10;81.20;;;;;;5065422;28;20201;-62
2022/06/14 09:06:47;;;;;;;4.90;1.27;;;18.30;79.90;;;;;;5064952;28;20483;-66
2022/06/14 09:09:37;;;;;;;7.28;1.50;;;18.50;85.30;;;;;;5068065;28;20125;-64
2022/06/14 09:12:30;;;;;;;4.93;1.30;;;18.20;82.60;;;;;;5069759;28;20077;-65
2022/06/14 09:15:32;;;;;;;4.57;1.67;;;18.20;92.40;;;;;;5070753;28;20040;-66
2022/06/14 09:18:19;;;;;;;4.00;1.10;;;18.40;82.70;;;;;;5069886;28;20399;-67
2022/06/14 09:21:08;;;;;;;3.35;1.00;;;18.30;68.80;;;;;;5064802;28;20429;-64
2022/06/14 09:24:05;;;;;;;6.75;1.10;;;18.50;70.60;;;;;;5070182;28;20052;-57
2022/06/14 09:26:52;;;;;;;5.05;0.90;;;18.60;73.40;;;;;;5088281;28;20498;-64
2022/06/14 09:29:33;;;;;;;5.88;0.95;;;18.60;75.40;;;;;;5070062;28;20052;-64
2022/06/14 09:32:26;;;;;;;2.97;1.02;;;18.70;73.60;;;;;;5086368;28;20219;-65
2022/06/14 09:35:11;;;;;;;3.20;1.63;;;18.50;78.80;;;;;;5053820;28;20056;-67
2022/06/14 09:37:51;;;;;;;1.90;0.80;;;18.30;76.50;;;;;;5070639;28;20514;-66
2022/06/14 09:40:40;;;;;;;8.68;2.08;;;17.90;75.80;;;;;;5070165;28;20105;-61
2022/06/14 09:43:34;;;;;;;5.97;1.30;;;17.60;91.00;;;;;;5052511;28;20392;-63
2022/06/14 09:46:21;;;;;;;7.45;1.17;;;17.40;92.50;;;;;;5066960;28;20056;-65
2022/06/14 09:49:06;;;;;;;1.83;0.75;;;17.40;93.00;;;;;;5064853;28;20555;-59
2022/06/14 09:51:53;;;;;;;3.58;1.02;;;17.50;90.40;;;;;;5087274;28;20032;-63
2022/06/14 09:54:50;;;;;;;3.05;1.70;;;17.60;79.00;;;;;;5068477;28;20043;-62
2022/06/14 09:57:31;;;;;;;4.05;1.20;;;17.80;79.60;;;;;;5057468;28;20403;-64
2022/06/14 10:00:13;;;;;;;4.47;1.35;;;17.80;64.30;;;;;;5086883;28;20048;-57
2022/06/14 10:03:00;;;;;;;9.77;1.17;;;17.60;84.50;;;;;;5065082;28;20040;-63
2022/06/14 10:05:52;;;;;;;7.82;1.58;;;17.50;92.50;;;;;;5059056;28;20048;-64
2022/06/14 10:08:42;;;;;;;3.50;1.20;;;17.40;82.70;;;;;;5061306;28;20518;-65
2022/06/14 10:11:42;;;;;;;2.72;0.88;;;17.10;85.70;;;;;;5082773;28;20047;-60
2022/06/14 10:14:32;;;;;;;6.25;1.17;;;16.90;93.10;;;;;;5061982;28;20131;-64
2022/06/14 10:17:22;;;;;;;2.88;1.10;;;16.70;90.50;;;;;;5055776;28;20152;-67
2022/06/14 10:20:23;;;;;;;1.95;1.00;;;16.60;94.10;;;;;;5066197;28;20052;-61
2022/06/14 10:23:11;;;;;;;5.78;1.45;;;16.50;93.10;;;;;;5012631;28;20058;-66
2022/06/14 10:28:11;;;;;;;10.43;1.75;;;16.50;93.70;;;;;;5064271;28;20044;-65
2022/06/14 10:28:57;;;;;;;4.63;1.17;;;16.50;96.90;;;;;;5081215;28;20044;-59
2022/06/14 10:32:03;;;;;;;7.47;1.45;;;16.60;93.10;;;;;;5065310;28;20084;-67
2022/06/14 10:34:59;;;;;;;5.20;1.00;;;16.60;84.70;;;;;;5001283;28;20093;-65
2022/06/14 10:37:50;;;;;;;7.95;0.95;;;16.60;90.70;;;;;;5080665;28;20494;-65
2022/06/14 10:40:39;;;;;;;2.42;0.98;;;16.60;95.60;;;;;;5082482;28;20080;-64
2022/06/14 10:43:29;;;;;;;1.98;1.02;;;16.60;90.20;;;;;;5063939;28;20513;-64
2022/06/14 10:46:22;;;;;;;4.20;1.17;;;16.70;93.70;;;;;;5079781;28;20101;-62
2022/06/14 10:48:56;;;;;;;4.10;1.20;;;16.70;96.90;;;;;;5052039;28;20048;-69
2022/06/14 10:51:34;;;;;;;3.38;0.90;;;16.70;95.40;;;;;;5080783;28;20048;-64
2022/06/14 10:54:38;;;;;;;2.45;0.98;;;16.70;96.00;;;;;;5056732;28;20059;-67
2022/06/14 10:57:09;;;;;;;1.58;0.70;;;16.70;93.90;;;;;;5072145;28;20040;-69
2022/06/14 10:59:38;;;;;;;3.40;1.00;;;16.80;97.00;;;;;;5078829;28;20043;-69
2022/06/14 11:02:13;;;;;;;2.60;0.80;;;16.90;95.40;;;;;;5061803;28;20785;-65
2022/06/14 11:04:59;;;;;;;4.25;0.90;;;17.00;93.00;;;;;;5078055;28;20052;-59
2022/06/14 11:07:39;;;;;;;4.68;0.82;;;17.20;93.60;;;;;;5074316;28;20044;-68
2022/06/14 11:10:15;;;;;;;3.13;1.17;;;17.50;94.60;;;;;;5059499;28;20071;-69
2022/06/14 11:12:59;;;;;;;5.85;0.90;;;17.90;88.80;;;;;;5063452;28;20044;-65
2022/06/14 11:15:41;;;;;;;6.45;1.20;;;18.10;70.40;;;;;;5079088;28;20149;-67
2022/06/14 11:18:06;;;;;;;3.60;0.93;;;18.20;95.60;;;;;;5060090;28;20559;-66
2022/06/14 11:20:41;;;;;;;3.40;0.82;;;18.20;74.90;;;;;;5045832;28;20089;-68
2022/06/14 11:23:51;;;;;;;3.60;0.93;;;18.20;83.00;;;;;;5078447;28;20043;-68
2022/06/14 11:26:22;;;;;;;1.77;0.80;;;18.10;88.90;;;;;;5060033;28;20092;-66
2022/06/14 11:29:01;;;;;;;1.88;1.00;;;18.00;89.70;;;;;;5063302;28;20151;-65
2022/06/14 11:31:41;;;;;;;2.65;0.95;;;17.70;78.40;;;;;;5063199;28;20111;-69
2022/06/14 11:34:26;;;;;;;1.48;0.90;;;17.40;84.20;;;;;;5080651;28;20032;-66
2022/06/14 11:37:10;;;;;;;10.05;1.30;;;17.20;90.80;;;;;;5079813;28;20514;-59
2022/06/14 11:39:42;;;;;;;3.97;0.98;;;17.10;93.20;;;;;;5076870;28;20093;-68
2022/06/14 11:42:30;;;;;;;4.07;0.90;;;16.90;91.00;;;;;;5061685;28;20079;-69
2022/06/14 11:45:13;;;;;;;2.08;1.25;;;16.80;95.50;;;;;;5064317;28;20063;-63
2022/06/14 11:48:03;;;;;;;2.83;0.93;;;16.70;95.90;;;;;;5063825;28;20036;-67
2022/06/14 11:50:48;;;;;;;;;;;16.80;95.40;;;;;;5045487;28;20495;-67
2022/06/14 11:53:38;;;;;;;6.45;1.10;;;16.60;93.20;;;;;;5082935;28;20414;-69
2022/06/14 11:56:40;;;;;;;3.80;1.33;;;16.60;97.10;;;;;;5062594;28;20036;-60
2022/06/14 11:59:38;;;;;;;4.93;1.45;;;16.50;96.40;;;;;;5061517;28;20048;-66
2022/06/14 12:02:25;;;;;;;5.28;1.10;;;16.50;94.80;;;;;;5029861;28;20047;-59
2022/06/14 12:05:06;;;;;;;5.18;1.02;;;16.40;97.10;;;;;;5066615;28;20052;-66
2022/06/14 12:07:40;;;;;;;2.42;0.93;;;16.40;96.30;;;;;;5063872;28;20051;-68
2022/06/14 12:10:53;;;;;;;2.92;1.02;;;16.40;99.70;;;;;;5083372;28;20398;-67
2022/06/14 12:13:30;;;;;;;2.25;0.90;;;16.40;99.90;;;;;;5078846;28;20067;-68
2022/06/14 12:16:05;;;;;;;3.50;1.20;;;16.40;99.90;;;;;;5085766;28;20058;-60
2022/06/14 12:18:36;;;;;;;3.47;1.10;;;16.30;99.90;;;;;;5072182;28;20040;-68
2022/06/14 12:21:45;;;;;;;5.55;0.82;;;16.30;99.90;;;;;;5066156;28;20554;-68
2022/06/14 12:26:34;;;;;;;2.63;0.93;;;16.20;99.90;;;;;;5037377;28;20118;-62
2022/06/14 12:27:11;;;;;;;;;;;16.20;99.90;;;;;;5085155;28;20052;-62
2022/06/14 12:29:41;;;;;;;5.75;1.10;;;16.20;99.90;;;;;;5065790;28;19927;-63
2022/06/14 12:32:11;;;;;;;4.85;1.15;;;16.10;99.90;;;;;;5040293;28;20072;-61
2022/06/14 12:34:53;;;;;;;3.38;1.38;;;16.10;99.90;;;;;;5067081;28;20063;-67
2022/06/14 12:38:00;;;;;;;3.22;1.05;;;16.10;99.90;;;;;;5075898;28;20051;-65
2022/06/14 12:40:48;;;;;;;4.75;1.20;;;16.20;99.90;;;;;;5079610;28;20051;-68
2022/06/14 12:43:42;;;;;;;4.32;1.05;;;16.30;99.90;;;;;;5066157;28;20043;-68
2022/06/14 12:46:15;;;;;;;8.02;1.50;;;16.30;99.90;;;;;;5060910;28;20101;-58
2022/06/14 12:48:56;;;;;;;6.82;1.30;;;16.40;99.90;;;;;;5080961;28;20047;-62
2022/06/14 12:51:28;;;;;;;3.20;1.20;;;16.50;99.90;;;;;;5065997;28;20056;-68
2022/06/14 12:54:12;;;;;;;5.38;1.48;;;16.50;99.90;;;;;;5084930;28;20131;-67
2022/06/14 12:56:58;;;;;;;4.18;1.77;;;16.60;99.90;;;;;;5085357;28;20075;-66
2022/06/14 12:59:43;;;;;;;7.30;1.30;;;16.80;99.90;;;;;;5075111;28;20386;-62
2022/06/14 13:02:17;;;;;;;5.05;1.20;;;16.80;99.90;;;;;;5065852;28;20044;-67
2022/06/14 13:04:48;;;;;;;7.28;1.20;;;16.90;98.80;;;;;;5085030;28;20510;-64
2022/06/14 13:07:33;;;;;;;3.97;1.00;;;17.00;98.30;;;;;;5065801;28;20485;-69
2022/06/14 13:10:20;;;;;;;6.30;1.67;;;17.00;98.20;;;;;;5066394;28;20066;-60
2022/06/14 13:13:20;;;;;;;2.45;1.05;;;17.10;96.80;;;;;;5081882;28;20055;-63
2022/06/14 13:16:24;;;;;;;3.97;1.20;;;17.10;97.10;;;;;;5085018;28;20971;-68
2022/06/14 13:19:07;;;;;;;4.78;0.90;;;17.20;99.50;;;;;;4997127;28;20388;-65
2022/06/14 13:22:23;;;;;;;1.95;0.77;;;17.40;97.90;;;;;;5080192;28;20488;-59
2022/06/14 13:25:26;;;;;;;11.05;1.25;;;17.40;99.30;;;;;;5040121;28;20852;-63
2022/06/14 13:28:02;;;;;;;5.18;1.50;;;17.50;93.90;;;;;;5066544;28;20434;-66
2022/06/14 13:30:57;;;;;;;4.47;1.05;;;17.50;96.00;;;;;;5066273;28;20130;-67
2022/06/14 13:33:32;;;;;;;4.75;1.05;;;17.60;92.80;;;;;;5063646;28;20525;-62
2022/06/14 13:36:04;;;;;;;2.50;0.85;;;17.60;95.60;;;;;;5049213;28;20052;-69
2022/06/14 13:38:35;;;;;;;3.65;1.20;;;17.60;95.80;;;;;;5084301;28;20059;-64
2022/06/14 13:41:25;;;;;;;1.83;1.10;;;17.70;98.60;;;;;;5066527;28;20458;-59
2022/06/14 13:44:15;;;;;;;4.93;1.25;;;17.80;95.00;;;;;;5082604;28;20395;-64
2022/06/14 13:46:51;;;;;;;3.72;0.88;;;17.60;95.50;;;;;;5066349;28;20540;-67
2022/06/14 13:49:29;;;;;;;3.13;0.82;;;17.50;94.50;;;;;;5048972;28;20078;-71
2022/06/14 13:52:03;;;;;;;5.07;1.30;;;17.50;98.60;;;;;;5084526;28;20074;-65
2022/06/14 13:54:43;;;;;;;4.68;0.95;;;17.50;98.60;;;;;;5060224;28;20155;-64
2022/06/14 13:57:32;;;;;;;4.70;1.13;;;17.40;95.80;;;;;;5053201;28;20501;-64
2022/06/14 14:00:14;;;;;;;4.05;2.00;;;17.50;99.90;;;;;;5053419;28;20536;-69